Time;durP1;ratioP1;P1;durP2;ratioP2;P2;SDS_P1;SDS_P2;PMS_P1;PMS_P2;Temp;Humidity;BMP_temperature;BMP_pressure;BME280_temperature;BME280_humidity;BME280_pressure;Samples;Min_cycle;Max_cycle;Signal;HPM_P1;HPM_P2
2023/09/19 14:44:30;;;;;;;15.18;6.57;;;;;;;;;;5011035;28;20042;-81
2023/09/19 14:47:05;;;;;;;12.27;6.75;;;;;;;;;;5014950;28;20050;-82
2023/09/19 14:49:38;;;;;;;11.07;6.20;;;;;;;;;;5014389;28;20042;-82
2023/09/19 14:52:15;;;;;;;12.18;6.55;;;;;;;;;;4997764;28;20049;-82
2023/09/19 14:54:45;;;;;;;13.15;6.25;;;;;;;;;;4997422;28;20049;-82
2023/09/19 14:57:16;;;;;;;13.25;6.18;;;;;;;;;;5014370;28;20049;-83
2023/09/19 14:59:47;;;;;;;12.38;6.28;;;;;;;;;;5013545;28;20026;-81
2023/09/19 15:02:20;;;;;;;13.00;6.60;;;;;;;;;;5012475;28;20046;-83
2023/09/19 15:04:52;;;;;;;10.90;5.90;;;;;;;;;;5014081;28;20042;-84
2023/09/19 15:07:26;;;;;;;11.43;5.85;;;;;;;;;;5014226;28;20053;-84
2023/09/19 15:09:57;;;;;;;10.55;6.05;;;;;;;;;;5013970;28;20041;-81
2023/09/19 15:12:29;;;;;;;11.18;5.80;;;;;;;;;;4996094;28;20046;-85
2023/09/19 15:15:04;;;;;;;10.65;5.60;;;;;;;;;;4996681;28;20053;-83
2023/09/19 15:17:37;;;;;;;11.68;5.43;;;;;;;;;;4996263;28;20046;-83
2023/09/19 15:20:07;;;;;;;11.15;5.60;;;;;;;;;;5014503;28;20053;-82
2023/09/19 15:22:41;;;;;;;10.00;5.25;;;;;;;;;;4997028;28;20053;-83
2023/09/19 15:25:12;;;;;;;13.02;5.55;;;;;;;;;;5014834;28;20045;-83
2023/09/19 15:27:44;;;;;;;8.90;4.28;;;;;;;;;;5014536;28;20042;-80
2023/09/19 15:30:15;;;;;;;9.82;5.38;;;;;;;;;;5014369;28;20037;-82
2023/09/19 15:32:51;;;;;;;9.50;5.15;;;;;;;;;;5014150;28;20057;-82
2023/09/19 15:35:25;;;;;;;7.03;4.03;;;;;;;;;;5014330;28;20049;-81
2023/09/19 15:37:58;;;;;;;8.95;4.05;;;;;;;;;;5014370;28;20046;-80
2023/09/19 15:40:30;;;;;;;11.27;5.55;;;;;;;;;;5013496;28;20053;-81
2023/09/19 15:43:01;;;;;;;9.70;4.80;;;;;;;;;;4993304;28;20416;-80
2023/09/19 15:45:32;;;;;;;9.63;5.20;;;;;;;;;;4995048;28;20407;-83
2023/09/19 15:48:05;;;;;;;10.00;5.05;;;;;;;;;;4994506;28;20053;-79
2023/09/19 15:50:36;;;;;;;7.72;4.43;;;;;;;;;;4994824;28;20046;-82
2023/09/19 15:53:10;;;;;;;7.10;4.10;;;;;;;;;;4994349;28;20167;-80
2023/09/19 15:55:43;;;;;;;7.93;4.85;;;;;;;;;;4993147;28;20046;-81
2023/09/19 15:58:18;;;;;;;8.65;4.70;;;;;;;;;;4994443;28;20377;-82
2023/09/19 16:00:48;;;;;;;8.52;4.55;;;;;;;;;;4994595;28;20038;-82
2023/09/19 16:03:21;;;;;;;7.15;4.13;;;;;;;;;;4994684;28;20050;-79
2023/09/19 16:05:56;;;;;;;9.52;4.00;;;;;;;;;;4994289;28;20038;-79
2023/09/19 16:08:29;;;;;;;7.20;3.67;;;;;;;;;;4994310;28;20042;-80
2023/09/19 16:10:59;;;;;;;9.38;4.43;;;;;;;;;;4993799;28;20038;-80
2023/09/19 16:13:29;;;;;;;8.15;4.72;;;;;;;;;;4990953;28;20050;-84
2023/09/19 16:16:01;;;;;;;6.93;4.20;;;;;;;;;;4981827;28;20381;-81
2023/09/19 16:18:33;;;;;;;12.27;4.60;;;;;;;;;;4974395;28;20043;-84
2023/09/19 16:21:08;;;;;;;7.80;4.00;;;;;;;;;;4974721;28;20042;-76
2023/09/19 16:23:38;;;;;;;10.27;4.25;;;;;;;;;;4974687;28;20058;-77
2023/09/19 16:26:12;;;;;;;8.32;4.75;;;;;;;;;;4974581;28;20042;-77
2023/09/19 16:28:50;;;;;;;7.60;4.10;;;;;;;;;;4974338;28;20389;-77
2023/09/19 16:31:21;;;;;;;8.05;4.25;;;;;;;;;;4979822;28;20050;-77
2023/09/19 16:33:53;;;;;;;8.40;3.70;;;;;;;;;;4983514;28;20477;-77
2023/09/19 16:36:25;;;;;;;8.40;4.22;;;;;;;;;;4984445;28;20046;-78
2023/09/19 16:39:01;;;;;;;7.93;4.22;;;;;;;;;;4984173;28;20039;-77
2023/09/19 16:41:33;;;;;;;6.72;4.10;;;;;;;;;;4977061;28;20054;-77
2023/09/19 16:44:07;;;;;;;8.80;4.55;;;;;;;;;;4974380;28;20074;-78
2023/09/19 16:46:41;;;;;;;8.13;4.55;;;;;;;;;;4973982;28;20478;-78
2023/09/19 16:49:16;;;;;;;9.70;4.50;;;;;;;;;;4974078;28;20054;-77
2023/09/19 16:51:47;;;;;;;8.25;4.78;;;;;;;;;;4973630;28;20043;-77
2023/09/19 16:54:16;;;;;;;8.90;5.03;;;;;;;;;;4974061;28;20045;-81
2023/09/19 16:56:48;;;;;;;7.53;4.75;;;;;;;;;;4974073;28;20043;-81
2023/09/19 16:59:23;;;;;;;8.98;4.55;;;;;;;;;;4974248;28;20054;-81
2023/09/19 17:01:56;;;;;;;9.43;5.32;;;;;;;;;;4973954;28;20045;-81
2023/09/19 17:04:29;;;;;;;8.05;4.70;;;;;;;;;;4973763;28;20042;-81
2023/09/19 17:07:00;;;;;;;8.75;4.97;;;;;;;;;;4940907;28;20061;-83
2023/09/19 17:09:33;;;;;;;10.43;5.18;;;;;;;;;;4966691;28;20049;-82
2023/09/19 17:12:05;;;;;;;8.15;5.35;;;;;;;;;;4992995;28;20042;-82
2023/09/19 17:14:38;;;;;;;8.88;5.82;;;;;;;;;;4993209;28;20049;-83
2023/09/19 17:17:11;;;;;;;13.98;5.43;;;;;;;;;;4975019;28;20050;-83
2023/09/19 17:19:45;;;;;;;9.98;5.15;;;;;;;;;;4993547;28;20038;-83
2023/09/19 17:22:18;;;;;;;12.20;5.38;;;;;;;;;;4993296;28;20058;-83
2023/09/19 17:24:51;;;;;;;10.40;5.80;;;;;;;;;;4973276;28;20038;-82
2023/09/19 17:27:23;;;;;;;10.48;5.25;;;;;;;;;;4982657;28;20066;-83
2023/09/19 17:29:54;;;;;;;10.20;5.88;;;;;;;;;;4981786;28;20039;-82
2023/09/19 17:32:24;;;;;;;10.05;5.53;;;;;;;;;;4982158;28;20030;-83
2023/09/19 17:34:54;;;;;;;12.10;5.93;;;;;;;;;;4976025;28;20046;-83
2023/09/19 17:37:29;;;;;;;11.02;6.78;;;;;;;;;;4957889;28;20050;-83
2023/09/19 17:40:03;;;;;;;11.75;6.78;;;;;;;;;;4980640;28;20065;-82
2023/09/19 17:42:36;;;;;;;10.95;6.70;;;;;;;;;;4974170;28;20042;-85
2023/09/19 17:45:09;;;;;;;11.68;6.47;;;;;;;;;;4992983;28;20107;-82
2023/09/19 17:47:43;;;;;;;10.68;6.00;;;;;;;;;;5004670;28;20053;-82
2023/09/19 17:50:15;;;;;;;13.18;6.93;;;;;;;;;;5012574;28;20049;-82
2023/09/19 17:52:47;;;;;;;13.23;6.82;;;;;;;;;;5012449;28;20041;-83
2023/09/19 17:55:19;;;;;;;12.32;6.63;;;;;;;;;;4991777;28;20042;-85
2023/09/19 17:57:50;;;;;;;10.63;6.07;;;;;;;;;;5003586;28;20471;-84
2023/09/19 18:00:28;;;;;;;10.23;6.30;;;;;;;;;;5012315;28;20476;-81
2023/09/19 18:03:03;;;;;;;10.52;5.30;;;;;;;;;;5012246;28;20108;-81
2023/09/19 18:05:37;;;;;;;8.85;5.10;;;;;;;;;;5012565;28;20046;-82
2023/09/19 18:08:07;;;;;;;10.30;5.88;;;;;;;;;;5012297;28;20041;-82
2023/09/19 18:10:39;;;;;;;10.13;6.05;;;;;;;;;;5012670;28;20038;-81
2023/09/19 18:13:10;;;;;;;10.57;6.25;;;;;;;;;;5011792;28;20037;-81
2023/09/19 18:15:40;;;;;;;10.02;5.80;;;;;;;;;;5012892;28;20042;-81
2023/09/19 18:18:11;;;;;;;15.25;6.78;;;;;;;;;;5000670;28;20042;-83
2023/09/19 18:20:43;;;;;;;9.38;6.00;;;;;;;;;;4997614;28;20038;-81
2023/09/19 18:23:14;;;;;;;11.57;6.53;;;;;;;;;;4993454;28;20046;-81
2023/09/19 18:25:46;;;;;;;9.63;6.03;;;;;;;;;;4996133;28;20050;-83
2023/09/19 18:28:17;;;;;;;11.85;6.47;;;;;;;;;;4996122;28;20042;-80
2023/09/19 18:30:48;;;;;;;8.75;5.43;;;;;;;;;;4978331;28;20046;-82
2023/09/19 18:33:20;;;;;;;15.43;7.65;;;;;;;;;;4980448;28;20041;-84
2023/09/19 18:36:02;;;;;;;15.65;6.35;;;;;;;;;;4995741;28;20334;-84
2023/09/19 18:38:41;;;;;;;12.52;5.95;;;;;;;;;;4994978;28;20042;-84
2023/09/19 18:41:15;;;;;;;14.65;5.43;;;;;;;;;;5005697;28;20038;-84
2023/09/19 18:43:46;;;;;;;10.25;5.30;;;;;;;;;;5015446;28;20041;-86
2023/09/19 18:46:17;;;;;;;10.45;5.57;;;;;;;;;;4993727;28;20061;-84
2023/09/19 18:48:52;;;;;;;10.65;5.30;;;;;;;;;;4982676;28;20050;-84
2023/09/19 18:51:25;;;;;;;8.95;5.18;;;;;;;;;;4979202;28;20103;-84
2023/09/19 18:53:55;;;;;;;10.00;5.72;;;;;;;;;;4961834;28;20050;-86
2023/09/19 18:56:43;;;;;;;14.00;5.90;;;;;;;;;;4977963;28;20050;-81
2023/09/19 18:59:16;;;;;;;10.20;6.05;;;;;;;;;;4995568;28;20046;-81
2023/09/19 19:01:50;;;;;;;10.55;6.57;;;;;;;;;;5002514;28;20361;-82
2023/09/19 19:04:20;;;;;;;10.27;6.00;;;;;;;;;;4998029;28;20049;-83
2023/09/19 19:06:52;;;;;;;9.75;5.57;;;;;;;;;;5003504;28;20388;-83
2023/09/19 19:09:23;;;;;;;8.90;5.90;;;;;;;;;;5004042;28;20055;-80
2023/09/19 19:11:55;;;;;;;13.48;6.13;;;;;;;;;;5000449;28;20048;-81
2023/09/19 19:14:28;;;;;;;10.75;6.07;;;;;;;;;;4990746;28;20073;-85
2023/09/19 19:17:01;;;;;;;14.15;6.30;;;;;;;;;;5009758;28;20346;-81
2023/09/19 19:19:57;;;;;;;9.90;5.55;;;;;;;;;;5009414;28;20053;-80
2023/09/19 19:22:33;;;;;;;9.50;5.85;;;;;;;;;;5014737;28;20038;-81
2023/09/19 19:25:04;;;;;;;9.57;5.03;;;;;;;;;;5014889;28;20037;-83
2023/09/19 19:27:35;;;;;;;10.98;6.00;;;;;;;;;;5014620;28;20033;-81
2023/09/19 19:30:30;;;;;;;8.30;5.10;;;;;;;;;;4997229;28;20048;-81
2023/09/19 19:33:01;;;;;;;14.10;6.05;;;;;;;;;;5014874;28;20044;-81
2023/09/19 19:35:33;;;;;;;12.95;6.07;;;;;;;;;;4979681;28;20046;-84
2023/09/19 19:38:04;;;;;;;11.43;5.28;;;;;;;;;;4994702;28;20053;-81
2023/09/19 19:40:38;;;;;;;9.57;5.63;;;;;;;;;;5002657;28;20038;-82
2023/09/19 19:43:10;;;;;;;10.35;5.15;;;;;;;;;;4994512;28;20051;-82
2023/09/19 19:45:41;;;;;;;10.55;5.40;;;;;;;;;;4977385;28;20914;-80
2023/09/19 19:48:11;;;;;;;10.43;5.68;;;;;;;;;;4998792;28;20045;-80
2023/09/19 19:50:44;;;;;;;7.55;4.70;;;;;;;;;;5014428;28;20038;-82
2023/09/19 19:53:18;;;;;;;12.30;4.85;;;;;;;;;;5005492;28;20038;-80
2023/09/19 19:55:49;;;;;;;10.38;5.07;;;;;;;;;;4996446;28;20049;-82
2023/09/19 19:58:25;;;;;;;;;;;;;;;;;;5015122;28;20144;-81
2023/09/19 20:00:59;;;;;;;9.38;5.35;;;;;;;;;;4995996;28;20378;-82
2023/09/19 20:03:35;;;;;;;11.13;5.53;;;;;;;;;;5013625;28;20042;-81
2023/09/19 20:06:06;;;;;;;11.23;5.68;;;;;;;;;;5013980;28;20049;-81
2023/09/19 20:08:38;;;;;;;10.63;5.47;;;;;;;;;;5013609;28;20037;-81
2023/09/19 20:11:12;;;;;;;11.27;5.57;;;;;;;;;;5013728;28;20073;-81
2023/09/19 20:13:47;;;;;;;9.10;6.15;;;;;;;;;;5003771;28;20475;-85
2023/09/19 20:16:17;;;;;;;13.52;6.35;;;;;;;;;;4976986;28;20396;-82
2023/09/19 20:18:47;;;;;;;13.15;6.45;;;;;;;;;;4977004;28;20050;-83
2023/09/19 20:21:21;;;;;;;10.43;5.93;;;;;;;;;;4993835;28;20042;-78
2023/09/19 20:23:54;;;;;;;10.15;5.82;;;;;;;;;;4993934;28;20061;-78
2023/09/19 20:26:26;;;;;;;11.55;6.63;;;;;;;;;;4996214;28;20038;-79
2023/09/19 20:28:57;;;;;;;13.75;7.30;;;;;;;;;;4993933;28;20049;-79
2023/09/19 20:31:39;;;;;;;14.35;7.38;;;;;;;;;;5002478;28;20065;-78
2023/09/19 20:34:13;;;;;;;15.23;7.10;;;;;;;;;;5013351;28;20476;-78
2023/09/19 20:36:45;;;;;;;13.98;6.10;;;;;;;;;;5009865;28;20049;-78
2023/09/19 20:39:17;;;;;;;10.52;4.85;;;;;;;;;;5009903;28;20368;-78
2023/09/19 20:41:48;;;;;;;8.55;4.20;;;;;;;;;;5007829;28;20477;-79
2023/09/19 20:44:19;;;;;;;7.50;3.95;;;;;;;;;;5011930;28;20046;-77
2023/09/19 20:46:53;;;;;;;8.43;3.97;;;;;;;;;;5013215;28;20054;-77
2023/09/19 20:49:23;;;;;;;6.45;3.67;;;;;;;;;;4996539;28;20072;-77
2023/09/19 20:51:56;;;;;;;5.72;3.03;;;;;;;;;;5013454;28;20042;-78
2023/09/19 20:54:32;;;;;;;6.43;2.97;;;;;;;;;;5014112;28;20067;-78
2023/09/19 20:57:03;;;;;;;5.22;2.97;;;;;;;;;;5032245;28;20049;-78
2023/09/19 20:59:33;;;;;;;6.32;3.58;;;;;;;;;;5037609;28;20029;-79
2023/09/19 21:02:05;;;;;;;5.78;3.05;;;;;;;;;;5037686;28;20024;-79
2023/09/19 21:04:36;;;;;;;4.75;2.35;;;;;;;;;;5004120;28;20054;-79
2023/09/19 21:07:10;;;;;;;4.32;2.03;;;;;;;;;;5037353;28;20283;-78
2023/09/19 21:09:44;;;;;;;8.00;2.75;;;;;;;;;;5036857;28;20044;-79
2023/09/19 21:12:18;;;;;;;4.45;2.45;;;;;;;;;;5037581;28;20029;-79
2023/09/19 21:14:52;;;;;;;4.35;2.05;;;;;;;;;;5020664;28;20046;-79
2023/09/19 21:17:23;;;;;;;4.68;2.25;;;;;;;;;;5014939;28;20048;-78
2023/09/19 21:19:54;;;;;;;3.97;2.20;;;;;;;;;;5014328;28;20049;-78
2023/09/19 21:22:28;;;;;;;4.72;2.65;;;;;;;;;;5013544;28;20058;-78
2023/09/19 21:25:00;;;;;;;4.65;1.98;;;;;;;;;;5013534;28;20475;-78
2023/09/19 21:27:31;;;;;;;7.45;2.10;;;;;;;;;;5013558;28;20045;-78
2023/09/19 21:30:04;;;;;;;4.18;1.92;;;;;;;;;;5012130;28;20042;-78
2023/09/19 21:32:40;;;;;;;3.15;1.95;;;;;;;;;;4986030;28;20057;-78
2023/09/19 21:35:12;;;;;;;5.88;2.05;;;;;;;;;;5001481;28;20045;-78
2023/09/19 21:37:44;;;;;;;;;;;;;;;;;;5001527;28;20057;-78
2023/09/19 21:40:15;;;;;;;6.05;2.45;;;;;;;;;;4985192;28;19918;-78
2023/09/19 21:42:46;;;;;;;6.28;2.33;;;;;;;;;;5001107;28;20053;-78
2023/09/19 21:45:22;;;;;;;5.90;2.70;;;;;;;;;;5006664;28;20480;-78
2023/09/19 21:47:53;;;;;;;8.02;3.45;;;;;;;;;;4999604;28;20508;-78
2023/09/19 21:50:29;;;;;;;7.93;3.58;;;;;;;;;;4992965;28;20365;-78
2023/09/19 21:53:07;;;;;;;8.15;3.88;;;;;;;;;;4993007;28;20049;-77
2023/09/19 21:55:39;;;;;;;7.35;2.90;;;;;;;;;;4992401;28;20365;-76
2023/09/19 21:58:11;;;;;;;7.68;2.65;;;;;;;;;;4994643;28;20046;-78
2023/09/19 22:00:46;;;;;;;4.97;2.22;;;;;;;;;;4996591;28;20038;-78
2023/09/19 22:03:22;;;;;;;12.50;6.57;;;;;;;;;;4994782;28;20061;-77
2023/09/19 22:06:13;;;;;;;11.88;4.45;;;;;;;;;;4994659;28;20046;-77
2023/09/19 22:08:49;;;;;;;8.13;3.67;;;;;;;;;;4994744;28;20057;-78
2023/09/19 22:11:24;;;;;;;5.38;3.33;;;;;;;;;;4995348;28;20046;-78
2023/09/19 22:13:56;;;;;;;7.30;4.00;;;;;;;;;;4977903;28;20054;-78
2023/09/19 22:16:29;;;;;;;8.23;3.80;;;;;;;;;;4994778;28;20046;-78
2023/09/19 22:18:59;;;;;;;12.23;4.30;;;;;;;;;;4994472;28;20054;-78
2023/09/19 22:21:35;;;;;;;8.73;3.67;;;;;;;;;;4994673;28;20058;-78
2023/09/19 22:24:30;;;;;;;9.60;4.22;;;;;;;;;;5012372;28;20049;-78
2023/09/19 22:27:02;;;;;;;8.90;4.35;;;;;;;;;;5016296;28;20042;-79
2023/09/19 22:29:34;;;;;;;7.68;3.53;;;;;;;;;;5015740;28;20038;-78
2023/09/19 22:32:07;;;;;;;10.30;4.70;;;;;;;;;;5016240;28;20065;-78
2023/09/19 22:34:40;;;;;;;11.95;4.32;;;;;;;;;;5015740;28;20050;-79
2023/09/19 22:37:14;;;;;;;11.05;3.88;;;;;;;;;;5015955;28;20380;-78
2023/09/19 22:39:44;;;;;;;10.20;4.00;;;;;;;;;;5015180;28;20049;-78
2023/09/19 22:42:23;;;;;;;6.38;4.07;;;;;;;;;;5015494;28;20049;-78
2023/09/19 22:44:56;;;;;;;10.27;4.63;;;;;;;;;;5015605;28;20049;-79
2023/09/19 22:47:30;;;;;;;9.90;4.85;;;;;;;;;;5014997;28;20057;-78
2023/09/19 22:50:12;;;;;;;10.20;4.78;;;;;;;;;;5016143;28;20045;-78
2023/09/19 22:52:50;;;;;;;12.65;4.20;;;;;;;;;;5014986;28;20046;-79
2023/09/19 22:55:30;;;;;;;8.13;4.57;;;;;;;;;;4998104;28;20050;-78
2023/09/19 22:58:04;;;;;;;9.80;4.38;;;;;;;;;;5013397;28;20048;-78
2023/09/19 23:00:36;;;;;;;9.52;4.70;;;;;;;;;;5006306;28;20046;-77
2023/09/19 23:03:09;;;;;;;10.43;5.32;;;;;;;;;;5002364;28;20384;-78
2023/09/19 23:05:45;;;;;;;11.43;5.38;;;;;;;;;;5000607;28;20050;-78
2023/09/19 23:08:18;;;;;;;12.35;5.03;;;;;;;;;;4995257;28;20058;-79
2023/09/19 23:10:51;;;;;;;10.18;4.45;;;;;;;;;;5003952;28;20481;-78
